createdAt,value
2019-05-11T00:01:21.507Z,6.67
2019-05-11T00:03:50.003Z,6.97
2019-05-11T00:06:18.812Z,6.40
2019-05-11T00:08:47.445Z,6.20
2019-05-11T00:11:16.201Z,6.80
2019-05-11T00:13:44.611Z,6.53
2019-05-11T00:16:13.358Z,6.17
2019-05-11T00:18:42.094Z,5.93
2019-05-11T00:21:10.722Z,6.17
2019-05-11T00:23:39.459Z,6.07
2019-05-11T00:26:08.171Z,6.10
2019-05-11T00:28:36.727Z,6.70
2019-05-11T00:31:05.511Z,7.47
2019-05-11T00:33:34.200Z,6.60
2019-05-11T00:36:02.823Z,6.57
2019-05-11T00:38:31.551Z,6.70
2019-05-11T00:41:00.174Z,6.17
2019-05-11T00:43:28.930Z,5.80
2019-05-11T00:45:58.463Z,5.80
2019-05-11T00:48:28.923Z,6.90
2019-05-11T00:50:57.509Z,6.33
2019-05-11T00:53:26.228Z,5.73
2019-05-11T00:55:54.999Z,6.20
2019-05-11T00:58:23.531Z,6.30
2019-05-11T01:00:52.085Z,5.63
2019-05-11T01:03:20.715Z,5.90
2019-05-11T01:05:49.452Z,5.90
2019-05-11T01:08:17.954Z,6.37
2019-05-11T01:10:46.618Z,7.13
2019-05-11T01:13:15.365Z,6.37
2019-05-11T01:15:44.090Z,6.50
2019-05-11T01:18:13.019Z,6.30
2019-05-11T01:20:41.572Z,6.10
2019-05-11T01:23:11.279Z,6.17
2019-05-11T01:25:39.922Z,5.87
2019-05-11T01:28:08.632Z,6.70
2019-05-11T01:30:38.884Z,6.03
2019-05-11T01:33:07.765Z,6.00
2019-05-11T01:35:36.448Z,5.83
2019-05-11T01:38:05.267Z,5.80
2019-05-11T01:40:33.952Z,5.63
2019-05-11T01:43:02.759Z,5.97
2019-05-11T01:45:31.455Z,5.73
2019-05-11T01:48:00.041Z,5.77
2019-05-11T01:50:29.777Z,5.93
2019-05-11T01:52:58.577Z,5.77
2019-05-11T01:55:27.206Z,6.00
2019-05-11T01:57:55.804Z,5.83
2019-05-11T02:00:24.449Z,5.73
2019-05-11T02:02:53.087Z,6.43
2019-05-11T02:05:28.488Z,5.93
2019-05-11T02:07:59.545Z,6.63
2019-05-11T02:10:28.345Z,6.60
2019-05-11T02:12:57.033Z,6.37
2019-05-11T02:15:25.855Z,6.10
2019-05-11T02:17:54.502Z,6.70
2019-05-11T02:20:22.914Z,6.63
2019-05-11T02:22:51.709Z,6.40
2019-05-11T02:25:20.155Z,6.83
2019-05-11T02:27:48.713Z,6.70
2019-05-11T02:30:18.412Z,6.60
2019-05-11T02:32:46.831Z,7.20
2019-05-11T02:35:15.452Z,6.87
2019-05-11T02:37:44.090Z,7.07
2019-05-11T02:40:14.204Z,7.07
2019-05-11T02:42:42.730Z,7.57
2019-05-11T02:45:11.843Z,8.13
2019-05-11T02:47:40.631Z,7.47
2019-05-11T02:50:09.341Z,7.80
2019-05-11T02:52:39.370Z,7.63
2019-05-11T02:55:08.185Z,8.47
2019-05-11T02:57:36.910Z,8.13
2019-05-11T03:00:07.245Z,9.43
2019-05-11T03:02:35.693Z,8.70
2019-05-11T03:05:05.622Z,9.70
2019-05-11T03:07:34.154Z,9.80
2019-05-11T03:10:02.969Z,9.10
2019-05-11T03:12:31.573Z,9.00
2019-05-11T03:15:00.155Z,9.30
2019-05-11T03:17:32.172Z,9.60
2019-05-11T03:20:00.894Z,9.80
2019-05-11T03:22:29.312Z,8.80
2019-05-11T03:24:57.924Z,8.73
2019-05-11T03:27:26.603Z,10.00
2019-05-11T03:29:59.947Z,9.07
2019-05-11T03:32:25.877Z,10.43
2019-05-11T03:34:54.594Z,9.83
2019-05-11T03:37:23.229Z,10.27
2019-05-11T03:39:51.812Z,11.10
2019-05-11T03:42:20.377Z,10.07
2019-05-11T03:44:49.041Z,10.20
2019-05-11T03:47:17.865Z,10.67
2019-05-11T03:49:46.495Z,10.63
2019-05-11T03:52:15.083Z,10.77
2019-05-11T03:54:44.801Z,11.20
2019-05-11T03:57:13.273Z,10.80
2019-05-11T03:59:41.938Z,10.13
2019-05-11T04:02:10.615Z,11.17
2019-05-11T04:04:39.040Z,11.37
2019-05-11T04:07:07.852Z,12.03
2019-05-11T04:09:36.368Z,10.00
2019-05-11T04:12:05.052Z,11.13
2019-05-11T04:14:33.769Z,12.27
2019-05-11T04:17:02.530Z,10.47
2019-05-11T04:19:31.286Z,11.13
2019-05-11T04:21:59.908Z,10.67
2019-05-11T04:24:28.538Z,10.33
2019-05-11T04:26:57.180Z,11.33
2019-05-11T04:29:25.730Z,10.50
2019-05-11T04:31:54.322Z,12.17
2019-05-11T04:34:22.927Z,11.80
2019-05-11T04:36:51.576Z,12.10
2019-05-11T04:39:20.384Z,12.53
2019-05-11T04:41:49.030Z,12.73
2019-05-11T04:44:17.881Z,13.47
2019-05-11T04:46:46.491Z,14.70
2019-05-11T04:49:15.117Z,15.70
2019-05-11T04:51:43.625Z,16.27
2019-05-11T04:54:12.187Z,16.77
2019-05-11T04:56:41.089Z,16.70
2019-05-11T04:59:10.013Z,19.70
2019-05-11T05:01:38.722Z,21.30
2019-05-11T05:04:14.021Z,20.90
2019-05-11T05:06:39.021Z,21.40
2019-05-11T05:09:07.987Z,21.93
2019-05-11T05:11:48.498Z,21.53
2019-05-11T05:14:10.330Z,23.90
2019-05-11T05:16:38.241Z,22.90
2019-05-11T05:24:15.851Z,25.93
2019-05-11T05:26:48.148Z,30.50
2019-05-11T05:29:16.928Z,30.30
2019-05-11T05:31:46.518Z,31.00
2019-05-11T05:34:15.157Z,32.00
2019-05-11T05:38:31.315Z,31.07
2019-05-11T05:41:06.210Z,32.23
2019-05-11T05:43:34.857Z,32.17
2019-05-11T05:46:03.768Z,30.17
2019-05-11T05:48:32.528Z,32.73
2019-05-11T05:51:01.196Z,31.20
2019-05-11T05:53:29.832Z,29.57
2019-05-11T05:55:58.664Z,32.07
2019-05-11T05:58:27.335Z,29.63
2019-05-11T06:00:56.150Z,29.30
2019-05-11T06:03:24.960Z,29.20
2019-05-11T06:05:53.495Z,29.53
2019-05-11T06:08:22.149Z,29.77
2019-05-11T06:10:50.795Z,27.60
2019-05-11T06:13:19.606Z,28.60
2019-05-11T06:15:48.367Z,30.03
2019-05-11T06:18:17.190Z,30.67
2019-05-11T06:20:46.043Z,29.57
2019-05-11T06:23:14.703Z,31.20
2019-05-11T06:25:43.301Z,32.87
2019-05-11T06:28:11.904Z,36.27
2019-05-11T06:30:40.648Z,33.90
2019-05-11T06:33:09.159Z,33.20
2019-05-11T06:35:37.690Z,32.07
2019-05-11T06:38:06.377Z,31.90
2019-05-11T06:40:35.042Z,31.03
2019-05-11T06:43:03.529Z,31.60
2019-05-11T06:45:32.170Z,30.83
2019-05-11T06:48:00.856Z,32.93
2019-05-11T06:50:29.394Z,28.53
2019-05-11T06:52:57.927Z,35.60
2019-05-11T06:55:26.751Z,33.23
2019-05-11T06:57:56.577Z,30.77
2019-05-11T07:00:25.261Z,27.80
2019-05-11T07:02:53.926Z,31.77
2019-05-11T07:05:22.629Z,29.67
2019-05-11T07:07:51.139Z,30.07
2019-05-11T07:10:19.868Z,29.23
2019-05-11T07:12:48.378Z,30.43
2019-05-11T07:15:18.188Z,32.60
2019-05-11T07:17:46.882Z,30.80
2019-05-11T07:20:15.527Z,26.57
2019-05-11T07:22:44.031Z,30.80
2019-05-11T07:25:12.759Z,28.10
2019-05-11T07:27:42.322Z,24.77
2019-05-11T07:30:11.256Z,23.70
2019-05-11T07:32:40.372Z,22.87
2019-05-11T07:35:09.196Z,23.07
2019-05-11T07:37:39.263Z,19.53
2019-05-11T07:40:08.852Z,21.70
2019-05-11T07:42:38.012Z,20.77
2019-05-11T07:45:09.029Z,19.17
2019-05-11T07:47:38.361Z,16.13
2019-05-11T07:50:08.219Z,17.73
2019-05-11T07:52:37.810Z,15.20
2019-05-11T07:55:08.554Z,15.57
2019-05-11T07:57:38.962Z,18.23
2019-05-11T08:00:09.275Z,16.93
2019-05-11T08:02:38.673Z,15.13
2019-05-11T08:05:08.681Z,13.53
2019-05-11T08:07:37.987Z,14.23
2019-05-11T08:10:08.196Z,12.63
2019-05-11T08:12:39.094Z,11.73
2019-05-11T08:15:12.879Z,11.83
2019-05-11T08:17:38.691Z,10.70
2019-05-11T08:20:08.402Z,10.80
2019-05-11T08:22:37.839Z,10.87
2019-05-11T08:25:09.182Z,10.83
2019-05-11T08:27:39.032Z,11.23
2019-05-11T08:30:09.176Z,10.33
2019-05-11T08:32:38.722Z,9.53
2019-05-11T08:35:08.645Z,9.33
2019-05-11T08:37:38.763Z,8.87
2019-05-11T08:40:07.946Z,7.73
2019-05-11T08:42:37.871Z,8.80
2019-05-11T08:45:18.878Z,8.90
2019-05-11T08:47:37.910Z,8.20
2019-05-11T08:50:08.057Z,8.27
2019-05-11T08:52:38.607Z,8.13
2019-05-11T08:55:08.381Z,7.90
2019-05-11T08:57:38.802Z,8.03
2019-05-11T09:00:12.841Z,7.80
2019-05-11T09:02:41.794Z,7.00
2019-05-11T09:05:11.137Z,6.37
2019-05-11T09:07:39.796Z,6.90
2019-05-11T09:10:09.257Z,6.17
2019-05-11T09:12:38.359Z,7.27
2019-05-11T09:15:08.798Z,7.70
2019-05-11T09:17:38.155Z,7.33
2019-05-11T09:20:08.829Z,6.87
2019-05-11T09:22:39.090Z,7.50
2019-05-11T09:25:09.000Z,7.30
2019-05-11T09:27:37.889Z,7.23
2019-05-11T09:30:08.331Z,7.23
2019-05-11T09:32:38.487Z,7.33
2019-05-11T09:35:08.420Z,7.67
2019-05-11T09:37:38.217Z,7.60
2019-05-11T09:40:07.896Z,7.07
2019-05-11T09:42:38.654Z,7.93
2019-05-11T09:45:08.189Z,7.90
2019-05-11T09:47:38.667Z,8.47
2019-05-11T09:50:08.614Z,9.03
2019-05-11T09:52:38.453Z,9.00
2019-05-11T09:55:09.031Z,7.33
2019-05-11T09:57:38.176Z,6.67
2019-05-11T10:00:08.871Z,4.93
2019-05-11T10:02:38.686Z,5.33
2019-05-11T10:05:08.250Z,5.93
2019-05-11T10:07:38.067Z,5.60
2019-05-11T10:10:09.207Z,5.67
2019-05-11T10:12:38.198Z,5.27
2019-05-11T10:15:08.559Z,5.07
2019-05-11T10:17:38.270Z,5.57
2019-05-11T10:20:09.138Z,5.37
2019-05-11T10:22:38.447Z,5.60
2019-05-11T10:25:08.945Z,5.60
2019-05-11T10:27:38.456Z,5.60
2019-05-11T10:30:08.184Z,5.97
2019-05-11T10:32:38.028Z,4.93
2019-05-11T10:35:08.003Z,5.20
2019-05-11T10:37:38.924Z,4.70
2019-05-11T10:40:09.522Z,6.20
2019-05-11T10:42:40.898Z,5.70
2019-05-11T10:45:09.766Z,5.13
2019-05-11T10:47:39.625Z,5.47
2019-05-11T10:50:08.775Z,6.10
2019-05-11T10:52:38.028Z,5.93
2019-05-11T10:55:08.613Z,5.30
2019-05-11T10:57:38.634Z,6.17
2019-05-11T11:00:09.169Z,5.83
2019-05-11T11:02:38.535Z,6.90
2019-05-11T11:05:08.234Z,6.73
2019-05-11T11:07:38.420Z,6.67
2019-05-11T11:10:08.836Z,7.03
2019-05-11T11:12:38.647Z,6.60
2019-05-11T11:15:08.708Z,7.17
2019-05-11T11:17:38.180Z,6.30
2019-05-11T11:20:08.585Z,6.80
2019-05-11T11:22:43.560Z,7.30
2019-05-11T11:25:08.139Z,6.43
2019-05-11T11:27:38.116Z,6.67
2019-05-11T11:30:09.161Z,6.67
2019-05-11T11:32:38.408Z,6.30
2019-05-11T11:35:08.523Z,5.90
2019-05-11T11:37:38.664Z,5.83
2019-05-11T11:40:08.449Z,6.37
2019-05-11T11:42:37.722Z,6.50
2019-05-11T11:45:08.008Z,6.97
2019-05-11T11:47:38.421Z,6.53
2019-05-11T11:50:09.163Z,6.77
2019-05-11T11:52:38.309Z,6.07
2019-05-11T11:55:08.280Z,6.63
2019-05-11T11:57:37.981Z,6.70
2019-05-11T12:00:09.075Z,6.83
2019-05-11T12:02:38.968Z,6.30
2019-05-11T12:05:08.835Z,6.23
2019-05-11T12:07:38.646Z,6.73
2019-05-11T12:10:08.414Z,6.40
2019-05-11T12:12:38.672Z,6.90
2019-05-11T12:15:08.905Z,5.70
2019-05-11T12:17:38.138Z,5.03
2019-05-11T12:20:08.918Z,5.23
2019-05-11T12:22:38.659Z,5.30
2019-05-11T12:25:08.100Z,3.53
2019-05-11T12:27:38.427Z,3.50
2019-05-11T12:30:08.976Z,3.20
2019-05-11T12:32:43.313Z,2.90
2019-05-11T12:35:12.261Z,2.97
2019-05-11T12:37:40.894Z,3.60
2019-05-11T12:40:10.999Z,3.47
2019-05-11T12:42:39.755Z,3.17
2019-05-11T12:45:10.011Z,3.13
2019-05-11T12:47:38.674Z,3.10
2019-05-11T12:50:08.723Z,3.03
2019-05-11T12:52:38.296Z,3.70
2019-05-11T12:55:08.720Z,3.57
2019-05-11T12:57:38.595Z,3.40
2019-05-11T13:00:08.656Z,3.60
2019-05-11T13:02:38.805Z,3.93
2019-05-11T13:05:08.656Z,3.60
2019-05-11T13:07:39.217Z,3.73
2019-05-11T13:10:09.419Z,3.60
2019-05-11T13:12:38.620Z,3.63
2019-05-11T13:15:08.413Z,3.57
2019-05-11T13:17:40.151Z,3.37
2019-05-11T13:20:12.644Z,3.47
2019-05-11T13:22:40.144Z,3.53
2019-05-11T13:25:08.845Z,3.00
2019-05-11T13:27:38.698Z,3.00
2019-05-11T13:30:08.105Z,3.60
2019-05-11T13:32:38.545Z,3.33
2019-05-11T13:35:09.228Z,3.20
2019-05-11T13:37:39.186Z,2.93
2019-05-11T13:40:08.456Z,3.50
2019-05-11T13:42:38.562Z,4.00
2019-05-11T13:45:08.583Z,3.40
2019-05-11T13:47:49.366Z,3.90
2019-05-11T13:50:08.083Z,3.20
2019-05-11T13:52:38.579Z,3.57
2019-05-11T13:55:07.863Z,3.27
2019-05-11T13:57:37.940Z,3.40
2019-05-11T14:00:08.518Z,3.70
2019-05-11T14:02:37.921Z,3.70
2019-05-11T14:05:08.700Z,3.77
2019-05-11T14:07:38.270Z,4.20
2019-05-11T14:10:08.110Z,3.87
2019-05-11T14:12:38.526Z,3.40
2019-05-11T14:15:08.608Z,3.80
2019-05-11T14:17:38.101Z,3.70
2019-05-11T14:20:08.900Z,3.83
2019-05-11T14:22:38.659Z,4.27
2019-05-11T14:25:08.173Z,4.13
2019-05-11T14:27:39.063Z,4.10
2019-05-11T14:30:09.299Z,4.17
2019-05-11T14:32:38.802Z,4.07
2019-05-11T14:35:12.051Z,4.20
2019-05-11T14:37:39.800Z,4.00
2019-05-11T14:40:09.054Z,3.80
2019-05-11T14:42:38.887Z,3.70
2019-05-11T14:45:08.436Z,4.00
2019-05-11T14:47:38.608Z,3.40
2019-05-11T14:50:08.715Z,3.33
2019-05-11T14:52:38.877Z,3.70
2019-05-11T14:55:08.329Z,3.70
2019-05-11T14:57:39.365Z,3.70
2019-05-11T15:00:09.016Z,3.23
2019-05-11T15:02:49.114Z,3.83
2019-05-11T15:05:18.621Z,3.37
2019-05-11T15:07:47.942Z,3.60
2019-05-11T15:10:18.752Z,3.87
2019-05-11T15:12:48.859Z,3.37
2019-05-11T15:15:18.862Z,4.43
2019-05-11T15:17:49.150Z,4.47
2019-05-11T15:20:18.249Z,4.20
2019-05-11T15:22:48.878Z,4.83
2019-05-11T15:25:19.248Z,4.50
2019-05-11T15:27:48.831Z,4.50
2019-05-11T15:30:18.508Z,4.47
2019-05-11T15:32:48.136Z,4.27
2019-05-11T15:35:18.497Z,4.50
2019-05-11T15:37:48.938Z,4.13
2019-05-11T15:40:18.988Z,4.37
2019-05-11T15:42:48.642Z,4.40
2019-05-11T15:45:19.878Z,6.10
2019-05-11T15:47:48.835Z,5.10
2019-05-11T15:50:19.225Z,4.20
2019-05-11T15:52:48.844Z,4.37
2019-05-11T15:55:19.604Z,4.07
2019-05-11T15:57:48.581Z,4.47
2019-05-11T16:00:19.316Z,4.97
2019-05-11T16:02:48.925Z,4.30
2019-05-11T16:05:19.090Z,4.77
2019-05-11T16:07:49.259Z,4.63
2019-05-11T16:10:18.939Z,4.53
2019-05-11T16:12:48.678Z,5.10
2019-05-11T16:15:19.166Z,4.60
2019-05-11T16:17:49.083Z,3.83
2019-05-11T16:20:19.231Z,4.50
2019-05-11T16:22:48.297Z,4.23
2019-05-11T16:25:19.676Z,3.87
2019-05-11T16:27:47.727Z,4.43
2019-05-11T16:30:18.399Z,3.73
2019-05-11T16:32:48.020Z,4.63
2019-05-11T16:35:18.045Z,3.73
2019-05-11T16:37:48.631Z,4.30
2019-05-11T16:40:20.236Z,3.80
2019-05-11T16:42:48.778Z,4.50
2019-05-11T16:45:19.061Z,4.67
2019-05-11T16:47:48.441Z,4.67
2019-05-11T16:50:18.137Z,5.23
2019-05-11T16:52:58.968Z,4.77
2019-05-11T16:55:27.781Z,4.87
2019-05-11T16:57:58.615Z,4.50
2019-05-11T17:00:27.214Z,4.47
2019-05-11T17:02:57.742Z,4.63
2019-05-11T17:05:29.919Z,4.43
2019-05-11T17:07:58.778Z,5.30
2019-05-11T17:10:28.396Z,4.53
2019-05-11T17:12:58.126Z,4.77
2019-05-11T17:15:28.907Z,5.13
2019-05-11T17:17:58.739Z,4.60
2019-05-11T17:20:29.097Z,4.20
2019-05-11T17:22:58.364Z,4.33
2019-05-11T17:25:28.791Z,4.47
2019-05-11T17:27:58.798Z,3.77
2019-05-11T17:30:27.990Z,4.60
2019-05-11T17:32:59.203Z,4.67
2019-05-11T17:35:27.277Z,4.80
2019-05-11T17:37:55.808Z,5.03
2019-05-11T17:40:24.919Z,7.07
2019-05-11T17:42:54.213Z,8.10
2019-05-11T17:45:22.960Z,8.03
2019-05-11T17:47:52.006Z,7.57
2019-05-11T17:50:20.620Z,7.63
2019-05-11T17:52:57.355Z,6.87
2019-05-11T17:55:28.471Z,6.47
2019-05-11T17:57:58.194Z,6.00
2019-05-11T18:00:28.328Z,6.57
2019-05-11T18:02:58.315Z,7.93
2019-05-11T18:05:27.495Z,5.63
2019-05-11T18:07:57.952Z,6.33
2019-05-11T18:10:28.287Z,5.77
2019-05-11T18:12:57.794Z,5.70
2019-05-11T18:15:30.867Z,4.93
2019-05-11T18:17:59.558Z,5.50
2019-05-11T18:20:28.627Z,5.83
2019-05-11T18:22:57.825Z,5.57
2019-05-11T18:25:28.685Z,5.13
2019-05-11T18:27:58.203Z,5.17
2019-05-11T18:30:29.374Z,6.30
2019-05-11T18:32:59.399Z,5.87
2019-05-11T18:35:28.588Z,6.00
2019-05-11T18:37:57.488Z,6.30
2019-05-11T18:40:26.015Z,6.30
2019-05-11T18:42:54.505Z,6.13
2019-05-11T18:45:23.440Z,5.90
2019-05-11T18:47:51.961Z,6.37
2019-05-11T18:50:30.474Z,6.90
2019-05-11T18:52:51.568Z,5.67
2019-05-11T18:55:20.514Z,5.90
2019-05-11T18:57:49.418Z,6.30
2019-05-11T19:00:18.584Z,6.77
2019-05-11T19:02:49.394Z,6.20
2019-05-11T19:05:18.272Z,6.30
2019-05-11T19:07:48.236Z,7.03
2019-05-11T19:10:17.116Z,6.53
2019-05-11T19:12:48.444Z,6.33
2019-05-11T19:15:18.588Z,6.50
2019-05-11T19:17:49.046Z,6.70
2019-05-11T19:20:18.075Z,7.20
2019-05-11T19:22:46.991Z,7.40
2019-05-11T19:25:17.964Z,6.70
2019-05-11T19:27:50.332Z,6.87
2019-05-11T19:30:18.467Z,7.10
2019-05-11T19:32:48.691Z,7.63
2019-05-11T19:35:20.602Z,6.67
2019-05-11T19:37:48.696Z,7.53
2019-05-11T19:40:17.569Z,6.83
2019-05-11T19:42:55.854Z,5.90
2019-05-11T19:45:24.371Z,5.43
2019-05-11T19:47:54.234Z,5.27
2019-05-11T19:50:22.916Z,5.20
2019-05-11T19:52:51.540Z,5.57
2019-05-11T19:55:20.032Z,5.63
2019-05-11T19:57:48.679Z,4.53
2019-05-11T20:00:18.730Z,5.80
2019-05-11T20:02:47.319Z,4.60
2019-05-11T20:05:18.321Z,5.03
2019-05-11T20:07:48.705Z,4.93
2019-05-11T20:10:18.841Z,4.97
2019-05-11T20:12:48.580Z,5.60
2019-05-11T20:15:18.829Z,5.30
2019-05-11T20:17:48.796Z,5.63
2019-05-11T20:20:18.402Z,6.37
2019-05-11T20:22:48.441Z,6.20
2019-05-11T20:25:18.435Z,5.50
2019-05-11T20:27:48.580Z,6.47
2019-05-11T20:30:18.573Z,5.53
2019-05-11T20:32:48.857Z,6.00
2019-05-11T20:35:18.279Z,6.13
2019-05-11T20:37:47.114Z,5.93
2019-05-11T20:40:18.061Z,6.90
2019-05-11T20:42:48.182Z,8.47
2019-05-11T20:45:18.447Z,4.03
2019-05-11T20:47:48.790Z,3.80
2019-05-11T20:50:18.550Z,5.13
2019-05-11T20:52:48.229Z,2.63
2019-05-11T20:55:18.212Z,2.50
2019-05-11T20:57:48.386Z,3.37
2019-05-11T21:00:18.690Z,3.37
2019-05-11T21:02:48.847Z,2.87
2019-05-11T21:05:18.599Z,4.03
2019-05-11T21:07:47.351Z,2.40
2019-05-11T21:10:16.029Z,2.00
2019-05-11T21:12:44.562Z,2.37
2019-05-11T21:15:14.622Z,3.00
2019-05-11T21:17:43.245Z,1.97
2019-05-11T21:20:12.475Z,1.60
2019-05-11T21:22:41.057Z,1.37
2019-05-11T21:25:11.106Z,1.17
2019-05-11T21:27:39.731Z,1.10
2019-05-11T21:30:09.507Z,1.10
2019-05-11T21:32:38.741Z,1.10
2019-05-11T21:35:09.029Z,1.10
2019-05-11T21:37:38.754Z,1.20
2019-05-11T21:40:08.705Z,1.10
2019-05-11T21:42:38.926Z,1.10
2019-05-11T21:45:09.053Z,1.43
2019-05-11T21:47:38.871Z,1.20
2019-05-11T21:50:08.418Z,1.50
2019-05-11T21:52:38.459Z,1.73
2019-05-11T21:55:09.921Z,0.90
2019-05-11T21:57:38.878Z,1.33
2019-05-11T22:00:08.929Z,1.90
2019-05-11T22:02:39.595Z,2.43
2019-05-11T22:05:09.590Z,2.10
2019-05-11T22:07:41.777Z,1.63
2019-05-11T22:10:09.416Z,1.70
2019-05-11T22:12:39.499Z,1.10
2019-05-11T22:15:09.731Z,0.90
2019-05-11T22:17:39.295Z,0.80
2019-05-11T22:20:10.598Z,0.90
2019-05-11T22:22:39.415Z,0.60
2019-05-11T22:25:08.354Z,0.90
2019-05-11T22:27:38.824Z,0.70
2019-05-11T22:30:08.331Z,0.70
2019-05-11T22:32:38.327Z,1.07
2019-05-11T22:35:07.759Z,0.73
2019-05-11T22:37:38.571Z,0.80
2019-05-11T22:40:08.589Z,0.73
2019-05-11T22:42:37.620Z,0.80
2019-05-11T22:45:08.529Z,0.80
2019-05-11T22:47:39.185Z,0.80
2019-05-11T22:50:07.987Z,0.93
2019-05-11T22:52:39.785Z,0.90
2019-05-11T22:55:11.105Z,0.80
2019-05-11T22:57:38.203Z,0.90
2019-05-11T23:00:08.397Z,0.90
2019-05-11T23:02:39.075Z,0.70
2019-05-11T23:05:08.721Z,0.73
2019-05-11T23:07:41.164Z,0.80
2019-05-11T23:10:13.939Z,0.60
2019-05-11T23:12:43.183Z,0.60
2019-05-11T23:15:15.674Z,0.70
2019-05-11T23:17:44.326Z,0.53
2019-05-11T23:20:13.210Z,0.73
2019-05-11T23:22:57.058Z,0.70
2019-05-11T23:25:18.572Z,0.80
2019-05-11T23:27:48.521Z,0.67
2019-05-11T23:30:19.687Z,0.60
2019-05-11T23:32:48.815Z,0.60
2019-05-11T23:35:18.742Z,0.60
2019-05-11T23:37:49.591Z,0.60
2019-05-11T23:40:19.477Z,0.50
2019-05-11T23:42:49.106Z,0.60
2019-05-11T23:45:19.049Z,0.80
2019-05-11T23:47:48.884Z,0.70
2019-05-11T23:50:19.418Z,0.70
2019-05-11T23:52:50.256Z,0.60
2019-05-11T23:55:19.413Z,0.60
2019-05-11T23:57:49.023Z,0.60
